createdAt,value
2023-03-29T00:00:16.806Z,93937.81
2023-03-29T00:01:34.810Z,93988.00
2023-03-29T00:02:33.577Z,93974.41
2023-03-29T00:03:30.816Z,93991.91
2023-03-29T00:04:30.610Z,93995.06
2023-03-29T00:05:27.289Z,93984.06
2023-03-29T00:06:24.171Z,93993.22
2023-03-29T00:07:23.625Z,93981.69
2023-03-29T00:08:22.138Z,93983.56
2023-03-29T00:09:20.033Z,93914.78
2023-03-29T00:10:16.744Z,93998.41
2023-03-29T00:11:13.303Z,93977.72
2023-03-29T00:12:11.677Z,93974.66
2023-03-29T00:13:09.139Z,93973.38
2023-03-29T00:14:05.829Z,93976.03
2023-03-29T00:15:04.345Z,93970.25
2023-03-29T00:16:00.946Z,93968.63
2023-03-29T00:16:58.341Z,93961.09
2023-03-29T00:17:55.097Z,93970.25
2023-03-29T00:18:51.764Z,93967.59
2023-03-29T00:19:49.182Z,93977.22
2023-03-29T00:20:45.813Z,93970.66
2023-03-29T00:21:42.394Z,93975.88
2023-03-29T00:22:42.208Z,93967.25
2023-03-29T00:23:38.924Z,93968.06
2023-03-29T00:24:36.213Z,93971.94
2023-03-29T00:25:32.844Z,93965.88
2023-03-29T00:26:29.457Z,93975.28
2023-03-29T00:27:26.117Z,93979.16
2023-03-29T00:28:23.795Z,93956.66
2023-03-29T00:29:20.583Z,93968.91
2023-03-29T00:30:17.584Z,93969.13
2023-03-29T00:31:19.341Z,93967.38
2023-03-29T00:32:16.164Z,93962.06
2023-03-29T00:33:14.611Z,93941.34
2023-03-29T00:34:11.711Z,93913.13
2023-03-29T00:35:09.143Z,93940.59
2023-03-29T00:36:07.442Z,93972.22
2023-03-29T00:37:04.295Z,93964.94
2023-03-29T00:38:00.903Z,93967.78
2023-03-29T00:38:57.523Z,93957.03
2023-03-29T00:39:54.156Z,93955.88
2023-03-29T00:40:50.920Z,93969.75
2023-03-29T00:41:49.361Z,93971.28
2023-03-29T00:42:46.286Z,93970.66
2023-03-29T00:44:00.803Z,93937.53
2023-03-29T00:45:20.823Z,93970.44
2023-03-29T00:46:17.495Z,93957.88
2023-03-29T00:47:14.253Z,93961.03
2023-03-29T00:48:13.679Z,93965.06
2023-03-29T00:49:13.613Z,93969.13
2023-03-29T00:50:31.731Z,93967.09
2023-03-29T00:51:32.951Z,93964.19
2023-03-29T00:52:32.203Z,93970.50
2023-03-29T00:53:33.454Z,93969.72
2023-03-29T00:54:30.260Z,93969.66
2023-03-29T00:55:32.502Z,93899.91
2023-03-29T00:56:37.158Z,93931.41
2023-03-29T00:57:34.281Z,93969.94
2023-03-29T00:58:43.220Z,93939.31
2023-03-29T00:59:43.377Z,93965.78
2023-03-29T01:00:57.995Z,93976.22
2023-03-29T01:02:05.408Z,93970.75
2023-03-29T01:03:07.196Z,93971.28
2023-03-29T01:04:09.937Z,93971.28
2023-03-29T01:05:15.538Z,93946.44
2023-03-29T01:06:14.922Z,93951.38
2023-03-29T01:07:35.273Z,93974.41
2023-03-29T01:08:44.178Z,93969.19
2023-03-29T01:09:47.952Z,93976.78
2023-03-29T01:10:57.564Z,93982.00
2023-03-29T01:11:57.567Z,93978.84
2023-03-29T01:13:00.469Z,93982.47
2023-03-29T01:14:04.129Z,93982.69
2023-03-29T01:15:10.045Z,93916.25
2023-03-29T01:16:09.261Z,94003.91
2023-03-29T01:17:06.705Z,93983.50
2023-03-29T01:18:03.402Z,93994.97
2023-03-29T01:19:02.300Z,93992.59
2023-03-29T01:20:10.827Z,93994.72
2023-03-29T01:21:34.112Z,94000.97
2023-03-29T01:22:41.374Z,93971.19
2023-03-29T01:23:58.368Z,93995.78
2023-03-29T01:25:15.137Z,94000.19
2023-03-29T01:26:29.974Z,94004.16
2023-03-29T01:27:47.420Z,94000.75
2023-03-29T01:28:52.705Z,94007.47
2023-03-29T01:29:55.294Z,94009.38
2023-03-29T01:31:00.669Z,94013.59
2023-03-29T01:32:37.942Z,94006.78
2023-03-29T01:33:40.431Z,94014.13
2023-03-29T01:34:41.084Z,94001.06
2023-03-29T01:35:45.432Z,94013.53
2023-03-29T01:37:07.554Z,94005.97
2023-03-29T01:38:27.997Z,94005.44
2023-03-29T01:39:24.814Z,93964.19
2023-03-29T01:40:21.444Z,93997.91
2023-03-29T01:41:18.123Z,94008.34
2023-03-29T01:42:23.576Z,94003.13
2023-03-29T01:43:49.712Z,93962.28
2023-03-29T01:45:06.601Z,93975.66
2023-03-29T01:46:09.302Z,93996.81
2023-03-29T01:47:18.158Z,94005.44
2023-03-29T01:48:41.405Z,93997.78
2023-03-29T01:49:46.097Z,93998.38
2023-03-29T01:50:46.178Z,93998.41
2023-03-29T01:51:51.145Z,93991.56
2023-03-29T01:53:01.324Z,94004.63
2023-03-29T01:54:10.329Z,93993.16
2023-03-29T01:55:18.516Z,93917.88
2023-03-29T01:56:19.684Z,94001.31
2023-03-29T01:57:17.912Z,93991.38
2023-03-29T01:58:16.973Z,93991.91
2023-03-29T01:59:17.698Z,93992.66
2023-03-29T02:00:16.791Z,93992.66
2023-03-29T02:01:19.083Z,94001.00
2023-03-29T02:02:18.843Z,93993.47
2023-03-29T02:03:18.411Z,93981.66
2023-03-29T02:04:21.091Z,93989.47
2023-03-29T02:05:19.746Z,94003.03
2023-03-29T02:06:24.931Z,93984.75
2023-03-29T02:07:26.899Z,94002.59
2023-03-29T02:08:25.699Z,93945.78
2023-03-29T02:09:23.487Z,93996.53
2023-03-29T02:10:21.866Z,93942.16
2023-03-29T02:11:19.929Z,94004.41
2023-03-29T02:12:18.013Z,94013.78
2023-03-29T02:13:14.784Z,94014.59
2023-03-29T02:14:11.557Z,94008.53
2023-03-29T02:15:14.535Z,94014.84
2023-03-29T02:16:13.570Z,94011.44
2023-03-29T02:17:19.719Z,94009.06
2023-03-29T02:18:17.819Z,94013.81
2023-03-29T02:19:15.395Z,94007.84
2023-03-29T02:20:17.672Z,94012.81
2023-03-29T02:21:25.060Z,94039.72
2023-03-29T02:22:36.765Z,93996.75
2023-03-29T02:23:38.852Z,94025.50
2023-03-29T02:24:37.176Z,94031.84
2023-03-29T02:25:34.536Z,94010.41
2023-03-29T02:26:31.705Z,93996.19
2023-03-29T02:27:29.638Z,93993.09
2023-03-29T02:28:27.211Z,94035.47
2023-03-29T02:29:24.048Z,94030.28
2023-03-29T02:30:23.691Z,94031.88
2023-03-29T02:31:31.213Z,94021.66
2023-03-29T02:32:57.459Z,94028.94
2023-03-29T02:34:26.823Z,94030.03
2023-03-29T02:35:34.240Z,94021.31
2023-03-29T02:36:40.901Z,94023.16
2023-03-29T02:37:40.618Z,94004.13
2023-03-29T02:38:39.134Z,94032.88
2023-03-29T02:39:36.974Z,94030.78
2023-03-29T02:40:37.683Z,94011.69
2023-03-29T02:41:36.339Z,94032.66
2023-03-29T02:42:33.041Z,94009.28
2023-03-29T02:43:31.081Z,94036.97
2023-03-29T02:44:31.069Z,94015.03
2023-03-29T02:45:28.256Z,94040.16
2023-03-29T02:46:25.990Z,94037.50
2023-03-29T02:47:28.833Z,94034.44
2023-03-29T02:48:28.374Z,94040.94
2023-03-29T02:49:25.274Z,94041.66
2023-03-29T02:50:24.086Z,94043.13
2023-03-29T02:51:25.414Z,94040.09
2023-03-29T02:52:28.235Z,94040.53
2023-03-29T02:53:32.799Z,94044.72
2023-03-29T02:54:31.637Z,93998.09
2023-03-29T02:55:34.633Z,94044.19
2023-03-29T02:56:45.193Z,94068.09
2023-03-29T02:57:43.562Z,94049.84
2023-03-29T02:58:41.006Z,94033.91
2023-03-29T02:59:38.679Z,94046.94
2023-03-29T03:00:38.331Z,93986.34
2023-03-29T03:01:36.846Z,94053.13
2023-03-29T03:02:33.644Z,94005.41
2023-03-29T03:03:30.359Z,94049.94
2023-03-29T03:04:27.510Z,94058.03
2023-03-29T03:05:24.294Z,94059.34
2023-03-29T03:06:21.480Z,94050.94
2023-03-29T03:07:20.034Z,94052.34
2023-03-29T03:08:16.682Z,94060.81
2023-03-29T03:09:13.879Z,94028.56
2023-03-29T03:10:11.193Z,94071.09
2023-03-29T03:11:08.460Z,94049.13
2023-03-29T03:12:05.240Z,94065.81
2023-03-29T03:13:02.290Z,94076.47
2023-03-29T03:13:58.879Z,94069.72
2023-03-29T03:14:55.479Z,94070.19
2023-03-29T03:15:52.115Z,94065.47
2023-03-29T03:16:49.726Z,94077.16
2023-03-29T03:17:46.771Z,94061.47
2023-03-29T03:18:44.013Z,94056.72
2023-03-29T03:19:40.713Z,94069.41
2023-03-29T03:20:37.321Z,94067.78
2023-03-29T03:21:35.325Z,94067.25
2023-03-29T03:22:32.442Z,94076.94
2023-03-29T03:23:29.586Z,93951.72
2023-03-29T03:24:28.061Z,94081.13
2023-03-29T03:25:24.736Z,94059.97
2023-03-29T03:26:22.905Z,94081.63
2023-03-29T03:27:19.604Z,94067.94
2023-03-29T03:28:16.190Z,94068.34
2023-03-29T03:29:13.956Z,94072.28
2023-03-29T03:30:11.506Z,94075.19
2023-03-29T03:31:08.171Z,94075.91
2023-03-29T03:32:05.148Z,94086.59
2023-03-29T03:33:01.972Z,94067.31
2023-03-29T03:33:58.835Z,94085.78
2023-03-29T03:34:55.486Z,94080.78
2023-03-29T03:35:52.650Z,94088.66
2023-03-29T03:36:49.502Z,94056.88
2023-03-29T03:37:46.190Z,94084.09
2023-03-29T03:38:44.154Z,94002.28
2023-03-29T03:39:40.878Z,94071.41
2023-03-29T03:40:37.705Z,94084.75
2023-03-29T03:41:35.006Z,94084.75
2023-03-29T03:42:32.257Z,94086.94
2023-03-29T03:43:29.245Z,94054.91
2023-03-29T03:44:26.068Z,94088.84
2023-03-29T03:45:22.725Z,94089.22
2023-03-29T03:46:19.436Z,94089.94
2023-03-29T03:47:16.051Z,94091.56
2023-03-29T03:48:12.838Z,94084.63
2023-03-29T03:49:09.426Z,94077.84
2023-03-29T03:50:06.949Z,94073.56
2023-03-29T03:51:04.834Z,94089.41
2023-03-29T03:52:01.795Z,94086.34
2023-03-29T03:52:58.402Z,94032.19
2023-03-29T03:53:54.992Z,94082.88
2023-03-29T03:54:51.796Z,94027.19
2023-03-29T03:55:54.312Z,94093.72
2023-03-29T03:56:51.128Z,94092.09
2023-03-29T03:57:48.021Z,94095.16
2023-03-29T03:58:44.677Z,94096.22
2023-03-29T03:59:41.312Z,94097.75
2023-03-29T04:00:38.058Z,94070.56
2023-03-29T04:01:35.627Z,94092.06
2023-03-29T04:02:32.824Z,94087.94
2023-03-29T04:03:30.123Z,94102.19
2023-03-29T04:04:27.069Z,94096.94
2023-03-29T04:05:23.742Z,94096.38
2023-03-29T04:06:20.384Z,94093.19
2023-03-29T04:07:18.093Z,94096.13
2023-03-29T04:08:15.081Z,94093.28
2023-03-29T04:09:12.965Z,94048.53
2023-03-29T04:10:11.255Z,94094.41
2023-03-29T04:11:08.040Z,94094.72
2023-03-29T04:12:05.070Z,94080.22
2023-03-29T04:13:02.436Z,94105.38
2023-03-29T04:13:59.207Z,94100.44
2023-03-29T04:14:56.102Z,94089.41
2023-03-29T04:15:58.731Z,94088.19
2023-03-29T04:16:56.981Z,94056.34
2023-03-29T04:17:53.946Z,94094.69
2023-03-29T04:18:50.678Z,94070.22
2023-03-29T04:19:47.347Z,94069.72
2023-03-29T04:20:44.046Z,94098.53
2023-03-29T04:21:40.794Z,94084.97
2023-03-29T04:22:38.920Z,94066.88
2023-03-29T04:23:36.304Z,94098.81
2023-03-29T04:24:32.901Z,94095.16
2023-03-29T04:25:29.717Z,94097.34
2023-03-29T04:26:26.759Z,94099.81
2023-03-29T04:27:23.365Z,94105.88
2023-03-29T04:28:19.956Z,94058.75
2023-03-29T04:29:16.873Z,94097.94
2023-03-29T04:30:13.978Z,94046.53
2023-03-29T04:31:14.794Z,94101.16
2023-03-29T04:32:11.913Z,94065.06
2023-03-29T04:33:08.750Z,94097.56
2023-03-29T04:34:05.508Z,94097.59
2023-03-29T04:35:02.491Z,94101.22
2023-03-29T04:35:59.322Z,94104.59
2023-03-29T04:36:56.471Z,94071.47
2023-03-29T04:37:54.646Z,94111.47
2023-03-29T04:38:54.435Z,94110.47
2023-03-29T04:39:52.560Z,94106.56
2023-03-29T04:40:50.382Z,94109.13
2023-03-29T04:41:47.315Z,94106.28
2023-03-29T04:42:44.852Z,94105.06
2023-03-29T04:43:41.590Z,94103.34
2023-03-29T04:44:38.301Z,94110.88
2023-03-29T04:45:34.896Z,94112.19
2023-03-29T04:46:32.421Z,94111.66
2023-03-29T04:47:29.801Z,94105.41
2023-03-29T04:48:26.688Z,94062.44
2023-03-29T04:49:25.923Z,94105.16
2023-03-29T04:50:22.775Z,94117.16
2023-03-29T04:51:22.186Z,94119.09
2023-03-29T04:52:19.312Z,94114.34
2023-03-29T04:53:16.514Z,94120.91
2023-03-29T04:54:13.409Z,94091.56
2023-03-29T04:55:11.732Z,94105.94
2023-03-29T04:56:08.815Z,94128.31
2023-03-29T04:57:06.755Z,94120.72
2023-03-29T04:58:04.880Z,94114.94
2023-03-29T04:59:01.607Z,94115.47
2023-03-29T04:59:58.333Z,94123.03
2023-03-29T05:01:01.218Z,94057.63
2023-03-29T05:01:58.296Z,94121.28
2023-03-29T05:02:55.034Z,94108.19
2023-03-29T05:03:52.777Z,94126.69
2023-03-29T05:04:49.468Z,94120.69
2023-03-29T05:05:46.128Z,94096.13
2023-03-29T05:06:42.712Z,94126.53
2023-03-29T05:07:40.174Z,94086.97
2023-03-29T05:08:39.304Z,94131.72
2023-03-29T05:09:36.067Z,94124.94
2023-03-29T05:10:32.695Z,94132.59
2023-03-29T05:11:29.372Z,94135.50
2023-03-29T05:12:26.325Z,94140.25
2023-03-29T05:13:23.375Z,94126.09
2023-03-29T05:14:20.184Z,94137.09
2023-03-29T05:15:16.939Z,94137.34
2023-03-29T05:16:13.511Z,94143.91
2023-03-29T05:17:10.189Z,94135.53
2023-03-29T05:18:06.845Z,94132.41
2023-03-29T05:19:04.073Z,94140.81
2023-03-29T05:20:01.348Z,94151.25
2023-03-29T05:20:59.629Z,94134.47
2023-03-29T05:21:56.552Z,94112.53
2023-03-29T05:22:53.666Z,94148.66
2023-03-29T05:23:50.300Z,94142.88
2023-03-29T05:24:47.297Z,94148.66
2023-03-29T05:25:44.152Z,94155.41
2023-03-29T05:26:41.054Z,94165.09
2023-03-29T05:27:37.643Z,94157.00
2023-03-29T05:28:34.191Z,94157.53
2023-03-29T05:29:32.810Z,94150.72
2023-03-29T05:30:29.733Z,94153.63
2023-03-29T05:31:26.556Z,94145.78
2023-03-29T05:32:23.389Z,94141.31
2023-03-29T05:33:20.011Z,94153.63
2023-03-29T05:34:16.607Z,94155.44
2023-03-29T05:35:13.229Z,94142.38
2023-03-29T05:36:14.168Z,94149.19
2023-03-29T05:37:10.848Z,94156.50
2023-03-29T05:38:07.546Z,94161.72
2023-03-29T05:39:04.885Z,94165.66
2023-03-29T05:40:05.687Z,94142.09
2023-03-29T05:41:03.490Z,94165.41
2023-03-29T05:42:00.920Z,94161.47
2023-03-29T05:42:59.605Z,94150.75
2023-03-29T05:43:56.387Z,94100.22
2023-03-29T05:44:54.616Z,94169.59
2023-03-29T05:45:54.187Z,94113.56
2023-03-29T05:46:50.857Z,94165.69
2023-03-29T05:47:48.024Z,94170.91
2023-03-29T05:48:44.798Z,94179.00
2023-03-29T05:49:41.505Z,94160.41
2023-03-29T05:50:38.485Z,94177.44
2023-03-29T05:51:35.547Z,94182.66
2023-03-29T05:52:32.256Z,94179.28
2023-03-29T05:53:28.961Z,94167.50
2023-03-29T05:54:26.479Z,94181.34
2023-03-29T05:55:23.764Z,94183.72
2023-03-29T05:56:20.588Z,94183.19
2023-03-29T05:57:17.207Z,94143.94
2023-03-29T05:58:15.616Z,94179.75
2023-03-29T05:59:13.834Z,94198.13
2023-03-29T06:00:24.084Z,94171.44
2023-03-29T06:01:22.651Z,94181.88
2023-03-29T06:02:19.255Z,94188.19
2023-03-29T06:03:22.269Z,94188.19
2023-03-29T06:04:19.046Z,94183.69
2023-03-29T06:05:16.141Z,94195.00
2023-03-29T06:06:15.262Z,94180.59
2023-03-29T06:07:12.662Z,94198.66
2023-03-29T06:08:10.000Z,94180.06
2023-03-29T06:09:06.952Z,94182.66
2023-03-29T06:10:04.941Z,94190.81
2023-03-29T06:11:05.215Z,94148.91
2023-03-29T06:12:02.095Z,94177.44
2023-03-29T06:12:59.138Z,94105.97
2023-03-29T06:13:55.873Z,94192.63
2023-03-29T06:14:52.765Z,94194.97
2023-03-29T06:15:49.342Z,94209.63
2023-03-29T06:16:47.113Z,94197.63
2023-03-29T06:17:47.325Z,94135.03
2023-03-29T06:18:44.929Z,94204.16
2023-03-29T06:19:41.961Z,94210.16
2023-03-29T06:20:38.615Z,94217.50
2023-03-29T06:21:35.695Z,94203.91
2023-03-29T06:22:32.493Z,94201.78
2023-03-29T06:23:29.466Z,94209.38
2023-03-29T06:24:27.094Z,94218.81
2023-03-29T06:25:23.788Z,94211.50
2023-03-29T06:26:20.468Z,94208.31
2023-03-29T06:27:17.659Z,94208.06
2023-03-29T06:28:15.090Z,94222.19
2023-03-29T06:29:11.780Z,94203.59
2023-03-29T06:30:08.753Z,94202.28
2023-03-29T06:31:06.010Z,94199.44
2023-03-29T06:32:03.402Z,94206.41
2023-03-29T06:33:01.097Z,94148.34
2023-03-29T06:33:58.371Z,94212.41
2023-03-29T06:34:55.412Z,94217.66
2023-03-29T06:35:52.793Z,94186.16
2023-03-29T06:36:51.074Z,94110.34
2023-03-29T06:37:50.584Z,94207.66
2023-03-29T06:38:47.252Z,94208.44
2023-03-29T06:39:44.053Z,94216.50
2023-03-29T06:40:43.225Z,94221.81
2023-03-29T06:41:39.968Z,94206.22
2023-03-29T06:42:36.550Z,94204.53
2023-03-29T06:43:34.798Z,94203.44
2023-03-29T06:44:32.622Z,94095.22
2023-03-29T06:45:32.413Z,94211.94
2023-03-29T06:46:29.301Z,94208.00
2023-03-29T06:47:30.875Z,94219.97
2023-03-29T06:48:27.686Z,94217.81
2023-03-29T06:49:24.332Z,94211.59
2023-03-29T06:50:22.312Z,94221.28
2023-03-29T06:51:20.573Z,94211.13
2023-03-29T06:52:19.186Z,94221.94
2023-03-29T06:53:16.048Z,94226.94
2023-03-29T06:54:13.321Z,94131.09
2023-03-29T06:55:11.955Z,94222.91
2023-03-29T06:56:09.825Z,94220.78
2023-03-29T06:57:07.982Z,94207.19
2023-03-29T06:58:04.688Z,94215.47
2023-03-29T06:59:01.235Z,94206.09
2023-03-29T06:59:57.820Z,94211.22
2023-03-29T07:01:00.805Z,94176.28
2023-03-29T07:01:57.621Z,94210.41
2023-03-29T07:02:56.571Z,94212.09
2023-03-29T07:03:54.423Z,94218.66
2023-03-29T07:04:51.794Z,94171.66
2023-03-29T07:05:48.430Z,94203.50
2023-03-29T07:06:48.473Z,94165.94
2023-03-29T07:08:11.362Z,94213.16
2023-03-29T07:09:08.065Z,94191.38
2023-03-29T07:10:05.560Z,94212.09
2023-03-29T07:11:03.366Z,94227.44
2023-03-29T07:12:00.442Z,94205.56
2023-03-29T07:12:57.396Z,94192.69
2023-03-29T07:13:55.566Z,94216.44
2023-03-29T07:14:52.890Z,94199.47
2023-03-29T07:15:49.523Z,94201.69
2023-03-29T07:16:47.342Z,94190.69
2023-03-29T07:17:44.167Z,94207.34
2023-03-29T07:18:44.333Z,94214.38
2023-03-29T07:19:40.934Z,94197.72
2023-03-29T07:20:39.040Z,94212.56
2023-03-29T07:21:37.871Z,94206.19
2023-03-29T07:22:34.592Z,94214.06
2023-03-29T07:23:31.426Z,94202.38
2023-03-29T07:24:28.485Z,94206.88
2023-03-29T07:25:27.516Z,94206.69
2023-03-29T07:26:28.541Z,94212.38
2023-03-29T07:27:27.062Z,94231.41
2023-03-29T07:28:23.770Z,94208.63
2023-03-29T07:29:20.884Z,94217.59
2023-03-29T07:30:22.940Z,94182.91
2023-03-29T07:31:19.522Z,94213.13
2023-03-29T07:32:16.572Z,94211.75
2023-03-29T07:33:13.456Z,94201.63
2023-03-29T07:34:13.526Z,94214.34
2023-03-29T07:35:12.151Z,94213.97
2023-03-29T07:36:09.000Z,94206.63
2023-03-29T07:37:07.212Z,94197.50
2023-03-29T07:38:04.006Z,94209.34
2023-03-29T07:39:01.952Z,94203.72
2023-03-29T07:40:00.154Z,94218.06
2023-03-29T07:40:57.743Z,94220.91
2023-03-29T07:41:57.583Z,94103.13
2023-03-29T07:42:56.657Z,94206.47
2023-03-29T07:43:54.283Z,94211.59
2023-03-29T07:44:50.859Z,94203.63
2023-03-29T07:45:48.445Z,94203.75
2023-03-29T07:46:45.114Z,94208.53
2023-03-29T07:47:42.140Z,94213.66
2023-03-29T07:48:39.014Z,94195.84
2023-03-29T07:49:35.887Z,94182.66
2023-03-29T07:50:32.767Z,94211.19
2023-03-29T07:51:29.786Z,94207.50
2023-03-29T07:52:28.980Z,94138.19
2023-03-29T07:53:27.001Z,94190.03
2023-03-29T07:54:24.033Z,94188.59
2023-03-29T07:55:20.796Z,94228.31
2023-03-29T07:56:17.467Z,94207.19
2023-03-29T07:57:14.181Z,94206.22
2023-03-29T07:58:10.796Z,94214.13
2023-03-29T07:59:07.362Z,94195.63
2023-03-29T08:00:31.702Z,94217.25
2023-03-29T08:01:28.396Z,94227.44
2023-03-29T08:02:25.413Z,94197.06
2023-03-29T08:03:22.919Z,94195.81
2023-03-29T08:04:20.425Z,94173.03
2023-03-29T08:05:23.434Z,94224.97
2023-03-29T08:06:27.474Z,94212.41
2023-03-29T08:07:24.885Z,94216.19
2023-03-29T08:08:22.120Z,94173.81
2023-03-29T08:09:18.761Z,94216.03
2023-03-29T08:10:17.931Z,94209.53
2023-03-29T08:11:15.292Z,94203.59
2023-03-29T08:12:11.929Z,94213.00
2023-03-29T08:13:09.367Z,94207.00
2023-03-29T08:14:07.272Z,94205.59
2023-03-29T08:15:05.541Z,94210.09
2023-03-29T08:16:02.165Z,94203.56
2023-03-29T08:16:58.941Z,94181.44
2023-03-29T08:17:55.852Z,94202.03
2023-03-29T08:18:52.624Z,94198.31
2023-03-29T08:19:50.850Z,94206.31
2023-03-29T08:20:48.032Z,94190.41
2023-03-29T08:21:44.732Z,94197.22
2023-03-29T08:22:41.663Z,94173.59
2023-03-29T08:23:38.271Z,94198.16
2023-03-29T08:24:34.906Z,94194.41
2023-03-29T08:25:31.557Z,94180.72
2023-03-29T08:26:28.188Z,94208.13
2023-03-29T08:27:25.014Z,94199.59
2023-03-29T08:28:22.326Z,94190.25
2023-03-29T08:29:18.959Z,94156.34
2023-03-29T08:30:15.642Z,94206.28
2023-03-29T08:31:12.926Z,94191.41
2023-03-29T08:32:09.803Z,94191.06
2023-03-29T08:33:06.624Z,94191.91
2023-03-29T08:34:03.627Z,94191.75
2023-03-29T08:35:03.865Z,94193.66
2023-03-29T08:36:00.544Z,94195.63
2023-03-29T08:36:58.566Z,94190.69
2023-03-29T08:37:55.110Z,94207.22
2023-03-29T08:38:52.007Z,94199.47
2023-03-29T08:39:48.683Z,94157.88
2023-03-29T08:40:48.626Z,94185.00
2023-03-29T08:41:48.174Z,94185.22
2023-03-29T08:42:45.060Z,94194.75
2023-03-29T08:44:02.863Z,94179.75
2023-03-29T08:44:59.419Z,94188.25
2023-03-29T08:46:02.024Z,94177.28
2023-03-29T08:47:15.910Z,94143.28
2023-03-29T08:48:28.905Z,94179.69
2023-03-29T08:49:26.520Z,94180.81
2023-03-29T08:50:48.033Z,94134.22
2023-03-29T08:51:50.156Z,94191.19
2023-03-29T08:52:57.667Z,94196.88
2023-03-29T08:54:01.913Z,94183.50
2023-03-29T08:55:01.622Z,94197.94
2023-03-29T08:56:01.817Z,94176.06
2023-03-29T08:57:05.297Z,94179.88
2023-03-29T08:58:03.188Z,94189.56
2023-03-29T08:59:00.469Z,94132.59
2023-03-29T09:00:01.852Z,94183.00
2023-03-29T09:01:01.140Z,94189.38
2023-03-29T09:02:00.402Z,94177.72
2023-03-29T09:03:00.316Z,94200.94
2023-03-29T09:04:10.165Z,94186.44
2023-03-29T09:05:22.614Z,94186.81
2023-03-29T09:06:22.047Z,94182.19
2023-03-29T09:07:18.892Z,94136.47
2023-03-29T09:08:18.265Z,94189.53
2023-03-29T09:09:19.859Z,94103.00
2023-03-29T09:10:21.278Z,94166.97
2023-03-29T09:11:23.961Z,94183.19
2023-03-29T09:12:41.819Z,94176.94
2023-03-29T09:13:47.054Z,94138.03
2023-03-29T09:14:50.905Z,94107.53
2023-03-29T09:16:19.344Z,94126.06
2023-03-29T09:17:36.287Z,94176.75
2023-03-29T09:18:57.592Z,94174.50
2023-03-29T09:20:34.716Z,94162.38
2023-03-29T09:21:50.657Z,94163.22
2023-03-29T09:22:59.341Z,94169.50
2023-03-29T09:24:08.597Z,94164.53
2023-03-29T09:25:25.016Z,94166.78
2023-03-29T09:26:36.047Z,94171.28
2023-03-29T09:27:50.106Z,94149.56
2023-03-29T09:29:07.721Z,94159.13
2023-03-29T09:30:31.470Z,94164.81
2023-03-29T09:31:39.162Z,94155.09
2023-03-29T09:32:44.118Z,94156.09
2023-03-29T09:33:50.553Z,94155.75
2023-03-29T09:35:00.276Z,94151.41
2023-03-29T09:36:05.046Z,94177.16
2023-03-29T09:37:08.888Z,94157.13
2023-03-29T09:38:11.780Z,94158.34
2023-03-29T09:39:13.266Z,94132.06
2023-03-29T09:40:21.406Z,94163.81
2023-03-29T09:41:30.290Z,94170.53
2023-03-29T09:42:29.655Z,94165.81
2023-03-29T09:43:32.482Z,94172.22
2023-03-29T09:44:35.986Z,94185.72
2023-03-29T09:45:33.498Z,94164.59
2023-03-29T09:46:39.336Z,94152.00
2023-03-29T09:47:40.913Z,94171.31
2023-03-29T09:48:41.476Z,94168.84
2023-03-29T09:49:47.159Z,94158.31
2023-03-29T09:50:51.393Z,94170.00
2023-03-29T09:51:50.135Z,94144.28
2023-03-29T09:52:49.816Z,94129.53
2023-03-29T09:53:47.219Z,94170.28
2023-03-29T09:54:44.353Z,94146.03
2023-03-29T09:55:41.265Z,94165.91
2023-03-29T09:56:39.504Z,94128.09
2023-03-29T09:57:36.250Z,94158.31
2023-03-29T09:58:32.957Z,94164.72
2023-03-29T09:59:30.192Z,94125.28
2023-03-29T10:00:26.782Z,94098.50
2023-03-29T10:01:23.528Z,94155.09
2023-03-29T10:02:21.501Z,94147.47
2023-03-29T10:03:23.872Z,94174.06
2023-03-29T10:04:22.276Z,94159.75
2023-03-29T10:05:18.961Z,94161.41
2023-03-29T10:06:17.317Z,94180.94
2023-03-29T10:07:20.595Z,94130.19
2023-03-29T10:08:29.765Z,94109.47
2023-03-29T10:09:29.457Z,94142.19
2023-03-29T10:10:35.089Z,94109.19
2023-03-29T10:11:38.540Z,94121.41
2023-03-29T10:12:35.390Z,94106.25
2023-03-29T10:13:35.394Z,94161.31
2023-03-29T10:14:53.620Z,94135.47
2023-03-29T10:16:21.573Z,94138.25
2023-03-29T10:17:29.596Z,94114.84
2023-03-29T10:18:27.390Z,94109.19
2023-03-29T10:19:34.395Z,94126.50
2023-03-29T10:20:34.379Z,94125.66
2023-03-29T10:21:31.716Z,94136.59
2023-03-29T10:22:36.442Z,94125.34
2023-03-29T10:23:36.660Z,94134.06
2023-03-29T10:24:33.912Z,94136.28
2023-03-29T10:25:33.988Z,94135.97
2023-03-29T10:26:34.490Z,94123.97
2023-03-29T10:27:35.878Z,94137.03
2023-03-29T10:28:35.035Z,94123.91
2023-03-29T10:29:38.753Z,94135.22
2023-03-29T10:30:38.637Z,94128.72
2023-03-29T10:31:41.668Z,94129.44
2023-03-29T10:32:39.303Z,94119.97
2023-03-29T10:33:36.643Z,94115.19
2023-03-29T10:34:33.902Z,94122.25
2023-03-29T10:35:41.556Z,94113.19
2023-03-29T10:36:42.107Z,94094.78
2023-03-29T10:37:48.891Z,94091.81
2023-03-29T10:38:46.258Z,94105.53
2023-03-29T10:39:43.090Z,94118.94
2023-03-29T10:40:48.818Z,94112.31
2023-03-29T10:41:46.036Z,94128.47
2023-03-29T10:42:50.003Z,94092.34
2023-03-29T10:43:50.805Z,94127.16
2023-03-29T10:45:40.061Z,94131.09
2023-03-29T10:46:44.151Z,94136.09
2023-03-29T10:47:45.434Z,94140.19
2023-03-29T10:48:47.823Z,94132.28
2023-03-29T10:49:57.161Z,94133.19
2023-03-29T10:51:00.129Z,94131.28
2023-03-29T10:51:57.340Z,94137.53
2023-03-29T10:52:54.019Z,94117.50
2023-03-29T10:53:50.858Z,94126.66
2023-03-29T10:54:49.587Z,94118.50
2023-03-29T10:56:20.072Z,94108.78
2023-03-29T10:57:41.438Z,94108.59
2023-03-29T10:58:58.383Z,94120.50
2023-03-29T11:00:05.335Z,94111.78
2023-03-29T11:01:02.466Z,94108.69
2023-03-29T11:02:14.371Z,94118.56
2023-03-29T11:03:37.586Z,94117.97
2023-03-29T11:04:47.760Z,94115.06
2023-03-29T11:05:57.432Z,94116.41
2023-03-29T11:07:12.936Z,94075.09
2023-03-29T11:08:21.401Z,94103.84
2023-03-29T11:09:18.002Z,94107.88
2023-03-29T11:10:32.339Z,94120.38
2023-03-29T11:11:49.550Z,94102.25
2023-03-29T11:13:04.394Z,94100.88
2023-03-29T11:14:28.165Z,94111.44
2023-03-29T11:15:33.899Z,94099.59
2023-03-29T11:16:53.736Z,94090.69
2023-03-29T11:18:05.152Z,94098.19
2023-03-29T11:19:14.634Z,94093.84
2023-03-29T11:20:17.571Z,94106.16
2023-03-29T11:21:39.867Z,94094.16
2023-03-29T11:23:03.991Z,94097.28
2023-03-29T11:24:10.064Z,94090.84
2023-03-29T11:25:23.208Z,93996.38
2023-03-29T11:26:22.794Z,94088.28
2023-03-29T11:27:46.092Z,94081.16
2023-03-29T11:28:55.743Z,94079.63
2023-03-29T11:29:57.403Z,94090.03
2023-03-29T11:31:28.248Z,94099.59
2023-03-29T11:32:34.190Z,94083.97
2023-03-29T11:33:56.834Z,94077.69
2023-03-29T11:35:17.735Z,94080.25
2023-03-29T11:36:22.765Z,94089.63
2023-03-29T11:37:39.643Z,94078.44
2023-03-29T11:39:15.269Z,94098.88
2023-03-29T11:40:42.778Z,94075.47
2023-03-29T11:41:44.970Z,94063.44
2023-03-29T11:42:48.425Z,94058.31
2023-03-29T11:43:49.955Z,94064.66
2023-03-29T11:44:50.196Z,94084.72
2023-03-29T11:45:55.907Z,94067.81
2023-03-29T11:47:15.092Z,94073.47
2023-03-29T11:48:24.216Z,94074.19
2023-03-29T11:49:29.428Z,94074.19
2023-03-29T11:50:35.356Z,94072.19
2023-03-29T11:51:41.424Z,94065.91
2023-03-29T11:52:42.994Z,94071.03
2023-03-29T11:54:13.510Z,94078.56
2023-03-29T11:55:18.216Z,93846.03
2023-03-29T11:56:26.672Z,94063.34
2023-03-29T11:57:45.223Z,94078.47